sensor_id;sensor_type;location;lat;lon;timestamp;P1;durP1;ratioP1;P2;durP2;ratioP2
70757;SDS011;59316;52.964;7.102;2022-12-11T00:03:06;43.03;;;12.70;;
70757;SDS011;59316;52.964;7.102;2022-12-11T00:08:14;52.03;;;12.70;;
70757;SDS011;59316;52.964;7.102;2022-12-11T00:13:16;60.08;;;14.77;;
70757;SDS011;59316;52.964;7.102;2022-12-11T00:18:18;44.55;;;13.45;;
70757;SDS011;59316;52.964;7.102;2022-12-11T00:23:20;42.03;;;13.65;;
70757;SDS011;59316;52.964;7.102;2022-12-11T00:28:22;42.00;;;13.45;;
70757;SDS011;59316;52.964;7.102;2022-12-11T00:33:25;42.03;;;13.00;;
70757;SDS011;59316;52.964;7.102;2022-12-11T00:38:27;47.17;;;12.45;;
70757;SDS011;59316;52.964;7.102;2022-12-11T00:43:28;50.20;;;14.50;;
70757;SDS011;59316;52.964;7.102;2022-12-11T00:48:31;54.20;;;13.75;;
70757;SDS011;59316;52.964;7.102;2022-12-11T00:53:33;50.37;;;14.97;;
70757;SDS011;59316;52.964;7.102;2022-12-11T00:58:35;42.25;;;11.85;;
70757;SDS011;59316;52.964;7.102;2022-12-11T01:03:37;44.40;;;12.43;;
70757;SDS011;59316;52.964;7.102;2022-12-11T01:08:38;46.63;;;13.65;;
70757;SDS011;59316;52.964;7.102;2022-12-11T01:13:41;48.17;;;12.60;;
70757;SDS011;59316;52.964;7.102;2022-12-11T01:18:43;41.97;;;11.63;;
70757;SDS011;59316;52.964;7.102;2022-12-11T01:23:45;41.95;;;10.90;;
70757;SDS011;59316;52.964;7.102;2022-12-11T01:28:50;43.40;;;13.05;;
70757;SDS011;59316;52.964;7.102;2022-12-11T01:33:55;49.63;;;13.27;;
70757;SDS011;59316;52.964;7.102;2022-12-11T01:38:56;53.60;;;12.88;;
70757;SDS011;59316;52.964;7.102;2022-12-11T01:49:01;55.88;;;13.60;;
70757;SDS011;59316;52.964;7.102;2022-12-11T01:54:08;54.03;;;13.15;;
70757;SDS011;59316;52.964;7.102;2022-12-11T01:59:11;48.38;;;12.02;;
70757;SDS011;59316;52.964;7.102;2022-12-11T02:04:13;48.33;;;13.35;;
70757;SDS011;59316;52.964;7.102;2022-12-11T02:09:20;42.33;;;12.43;;
70757;SDS011;59316;52.964;7.102;2022-12-11T02:14:26;44.30;;;12.93;;
70757;SDS011;59316;52.964;7.102;2022-12-11T02:19:34;31.95;;;11.20;;
70757;SDS011;59316;52.964;7.102;2022-12-11T02:24:55;44.13;;;11.10;;
70757;SDS011;59316;52.964;7.102;2022-12-11T02:35:05;40.13;;;11.27;;
70757;SDS011;59316;52.964;7.102;2022-12-11T02:40:10;35.38;;;10.75;;
70757;SDS011;59316;52.964;7.102;2022-12-11T02:45:13;41.13;;;10.77;;
70757;SDS011;59316;52.964;7.102;2022-12-11T02:50:18;39.40;;;10.93;;
70757;SDS011;59316;52.964;7.102;2022-12-11T02:55:21;35.80;;;11.65;;
70757;SDS011;59316;52.964;7.102;2022-12-11T03:00:23;38.92;;;11.63;;
70757;SDS011;59316;52.964;7.102;2022-12-11T03:05:25;44.03;;;11.48;;
70757;SDS011;59316;52.964;7.102;2022-12-11T03:10:26;41.38;;;11.77;;
70757;SDS011;59316;52.964;7.102;2022-12-11T03:15:32;36.03;;;11.50;;
70757;SDS011;59316;52.964;7.102;2022-12-11T03:20:40;43.80;;;10.48;;
70757;SDS011;59316;52.964;7.102;2022-12-11T03:25:56;45.25;;;12.73;;
70757;SDS011;59316;52.964;7.102;2022-12-11T03:31:01;46.40;;;11.25;;
70757;SDS011;59316;52.964;7.102;2022-12-11T03:36:05;35.97;;;10.68;;
70757;SDS011;59316;52.964;7.102;2022-12-11T03:41:08;36.95;;;10.27;;
70757;SDS011;59316;52.964;7.102;2022-12-11T03:51:12;37.28;;;10.50;;
70757;SDS011;59316;52.964;7.102;2022-12-11T03:56:15;47.53;;;12.30;;
70757;SDS011;59316;52.964;7.102;2022-12-11T04:01:18;40.33;;;11.03;;
70757;SDS011;59316;52.964;7.102;2022-12-11T04:06:20;44.58;;;11.00;;
70757;SDS011;59316;52.964;7.102;2022-12-11T04:11:21;47.90;;;11.88;;
70757;SDS011;59316;52.964;7.102;2022-12-11T04:16:23;50.30;;;11.52;;
70757;SDS011;59316;52.964;7.102;2022-12-11T04:21:25;49.80;;;13.05;;
70757;SDS011;59316;52.964;7.102;2022-12-11T04:26:27;52.45;;;13.32;;
70757;SDS011;59316;52.964;7.102;2022-12-11T04:31:29;55.97;;;13.73;;
70757;SDS011;59316;52.964;7.102;2022-12-11T04:36:31;56.58;;;11.85;;
70757;SDS011;59316;52.964;7.102;2022-12-11T04:41:33;50.40;;;12.52;;
70757;SDS011;59316;52.964;7.102;2022-12-11T04:46:34;49.63;;;12.25;;
70757;SDS011;59316;52.964;7.102;2022-12-11T04:51:36;52.22;;;12.68;;
70757;SDS011;59316;52.964;7.102;2022-12-11T04:56:38;48.08;;;12.65;;
70757;SDS011;59316;52.964;7.102;2022-12-11T05:01:40;53.53;;;12.93;;
70757;SDS011;59316;52.964;7.102;2022-12-11T05:06:42;57.58;;;13.15;;
70757;SDS011;59316;52.964;7.102;2022-12-11T05:11:45;56.10;;;14.50;;
70757;SDS011;59316;52.964;7.102;2022-12-11T05:16:47;51.55;;;13.25;;
70757;SDS011;59316;52.964;7.102;2022-12-11T05:21:49;56.10;;;12.93;;
70757;SDS011;59316;52.964;7.102;2022-12-11T05:26:50;54.40;;;13.52;;
70757;SDS011;59316;52.964;7.102;2022-12-11T05:31:52;60.63;;;12.82;;
70757;SDS011;59316;52.964;7.102;2022-12-11T05:36:54;61.88;;;13.98;;
70757;SDS011;59316;52.964;7.102;2022-12-11T05:41:56;50.03;;;14.05;;
70757;SDS011;59316;52.964;7.102;2022-12-11T05:46:58;69.63;;;14.20;;
70757;SDS011;59316;52.964;7.102;2022-12-11T05:52:00;55.33;;;13.82;;
70757;SDS011;59316;52.964;7.102;2022-12-11T05:57:02;67.70;;;14.43;;
70757;SDS011;59316;52.964;7.102;2022-12-11T06:02:03;66.45;;;15.13;;
70757;SDS011;59316;52.964;7.102;2022-12-11T06:07:05;72.95;;;14.30;;
70757;SDS011;59316;52.964;7.102;2022-12-11T06:12:07;62.42;;;14.18;;
70757;SDS011;59316;52.964;7.102;2022-12-11T06:17:09;47.25;;;13.00;;
70757;SDS011;59316;52.964;7.102;2022-12-11T06:22:11;53.70;;;13.77;;
70757;SDS011;59316;52.964;7.102;2022-12-11T06:27:13;52.63;;;12.52;;
70757;SDS011;59316;52.964;7.102;2022-12-11T06:32:14;65.10;;;14.68;;
70757;SDS011;59316;52.964;7.102;2022-12-11T06:37:16;67.03;;;14.60;;
70757;SDS011;59316;52.964;7.102;2022-12-11T06:42:18;57.38;;;13.23;;
70757;SDS011;59316;52.964;7.102;2022-12-11T06:47:20;60.58;;;13.98;;
70757;SDS011;59316;52.964;7.102;2022-12-11T06:52:22;59.22;;;13.15;;
70757;SDS011;59316;52.964;7.102;2022-12-11T06:57:24;57.87;;;13.90;;
70757;SDS011;59316;52.964;7.102;2022-12-11T07:02:26;56.08;;;13.10;;
70757;SDS011;59316;52.964;7.102;2022-12-11T07:07:28;80.47;;;15.40;;
70757;SDS011;59316;52.964;7.102;2022-12-11T07:12:30;58.47;;;13.52;;
70757;SDS011;59316;52.964;7.102;2022-12-11T07:17:32;45.28;;;10.95;;
70757;SDS011;59316;52.964;7.102;2022-12-11T07:22:33;63.47;;;13.88;;
70757;SDS011;59316;52.964;7.102;2022-12-11T07:27:35;50.25;;;12.73;;
70757;SDS011;59316;52.964;7.102;2022-12-11T07:32:37;58.47;;;14.65;;
70757;SDS011;59316;52.964;7.102;2022-12-11T07:37:39;58.90;;;12.40;;
70757;SDS011;59316;52.964;7.102;2022-12-11T07:42:41;65.05;;;13.65;;
70757;SDS011;59316;52.964;7.102;2022-12-11T07:47:47;55.42;;;12.73;;
70757;SDS011;59316;52.964;7.102;2022-12-11T07:52:48;47.95;;;12.60;;
70757;SDS011;59316;52.964;7.102;2022-12-11T07:57:50;51.42;;;13.00;;
70757;SDS011;59316;52.964;7.102;2022-12-11T08:02:52;53.60;;;12.88;;
70757;SDS011;59316;52.964;7.102;2022-12-11T08:07:54;66.43;;;14.95;;
70757;SDS011;59316;52.964;7.102;2022-12-11T08:12:56;63.78;;;14.18;;
70757;SDS011;59316;52.964;7.102;2022-12-11T08:17:58;57.47;;;14.65;;
70757;SDS011;59316;52.964;7.102;2022-12-11T08:22:59;67.72;;;12.82;;
70757;SDS011;59316;52.964;7.102;2022-12-11T08:28:02;55.13;;;13.32;;
70757;SDS011;59316;52.964;7.102;2022-12-11T08:33:05;57.55;;;14.30;;
70757;SDS011;59316;52.964;7.102;2022-12-11T08:38:07;65.32;;;13.25;;
70757;SDS011;59316;52.964;7.102;2022-12-11T08:43:09;64.25;;;13.77;;
70757;SDS011;59316;52.964;7.102;2022-12-11T08:48:11;58.22;;;13.35;;
70757;SDS011;59316;52.964;7.102;2022-12-11T08:53:13;62.63;;;15.07;;
70757;SDS011;59316;52.964;7.102;2022-12-11T08:58:15;58.72;;;13.15;;
70757;SDS011;59316;52.964;7.102;2022-12-11T09:03:16;60.33;;;15.48;;
70757;SDS011;59316;52.964;7.102;2022-12-11T09:08:18;61.67;;;13.40;;
70757;SDS011;59316;52.964;7.102;2022-12-11T09:13:20;67.28;;;15.27;;
70757;SDS011;59316;52.964;7.102;2022-12-11T09:18:22;57.42;;;13.13;;
70757;SDS011;59316;52.964;7.102;2022-12-11T09:23:24;65.18;;;13.90;;
70757;SDS011;59316;52.964;7.102;2022-12-11T09:28:26;54.58;;;13.77;;
70757;SDS011;59316;52.964;7.102;2022-12-11T09:33:28;49.55;;;12.48;;
70757;SDS011;59316;52.964;7.102;2022-12-11T09:38:30;49.72;;;13.02;;
70757;SDS011;59316;52.964;7.102;2022-12-11T09:43:36;54.50;;;12.37;;
70757;SDS011;59316;52.964;7.102;2022-12-11T09:48:39;37.85;;;11.13;;
70757;SDS011;59316;52.964;7.102;2022-12-11T09:53:41;50.78;;;12.25;;
70757;SDS011;59316;52.964;7.102;2022-12-11T10:08:59;55.05;;;14.27;;
70757;SDS011;59316;52.964;7.102;2022-12-11T10:14:21;40.40;;;11.50;;
70757;SDS011;59316;52.964;7.102;2022-12-11T10:19:27;50.50;;;13.68;;
70757;SDS011;59316;52.964;7.102;2022-12-11T10:24:38;56.38;;;12.65;;
70757;SDS011;59316;52.964;7.102;2022-12-11T10:30:12;52.25;;;14.00;;
70757;SDS011;59316;52.964;7.102;2022-12-11T10:35:20;44.25;;;13.50;;
70757;SDS011;59316;52.964;7.102;2022-12-11T10:40:26;52.97;;;14.80;;
70757;SDS011;59316;52.964;7.102;2022-12-11T10:45:29;52.40;;;13.38;;
70757;SDS011;59316;52.964;7.102;2022-12-11T10:50:31;50.47;;;12.65;;
70757;SDS011;59316;52.964;7.102;2022-12-11T10:55:42;48.22;;;13.70;;
70757;SDS011;59316;52.964;7.102;2022-12-11T11:00:45;56.97;;;14.57;;
70757;SDS011;59316;52.964;7.102;2022-12-11T11:05:47;49.23;;;14.63;;
70757;SDS011;59316;52.964;7.102;2022-12-11T11:16:06;56.85;;;14.05;;
70757;SDS011;59316;52.964;7.102;2022-12-11T11:21:27;58.50;;;13.70;;
70757;SDS011;59316;52.964;7.102;2022-12-11T11:26:30;53.35;;;14.82;;
70757;SDS011;59316;52.964;7.102;2022-12-11T11:31:52;66.80;;;16.10;;
70757;SDS011;59316;52.964;7.102;2022-12-11T11:36:55;52.55;;;14.85;;
70757;SDS011;59316;52.964;7.102;2022-12-11T11:42:02;55.50;;;13.35;;
70757;SDS011;59316;52.964;7.102;2022-12-11T11:57:28;48.88;;;14.25;;
70757;SDS011;59316;52.964;7.102;2022-12-11T12:02:32;61.38;;;14.15;;
70757;SDS011;59316;52.964;7.102;2022-12-11T12:07:45;49.75;;;13.60;;
70757;SDS011;59316;52.964;7.102;2022-12-11T12:17:54;49.75;;;14.40;;
70757;SDS011;59316;52.964;7.102;2022-12-11T12:48:54;55.45;;;14.95;;
70757;SDS011;59316;52.964;7.102;2022-12-11T12:53:58;53.83;;;14.20;;
70757;SDS011;59316;52.964;7.102;2022-12-11T13:04:03;58.10;;;13.77;;
70757;SDS011;59316;52.964;7.102;2022-12-11T13:09:24;42.38;;;13.80;;
70757;SDS011;59316;52.964;7.102;2022-12-11T13:14:28;57.83;;;14.13;;
70757;SDS011;59316;52.964;7.102;2022-12-11T13:19:31;53.60;;;15.15;;
70757;SDS011;59316;52.964;7.102;2022-12-11T13:35:20;60.33;;;15.20;;
70757;SDS011;59316;52.964;7.102;2022-12-11T13:40:27;56.58;;;14.75;;
70757;SDS011;59316;52.964;7.102;2022-12-11T13:45:42;58.80;;;15.00;;
70757;SDS011;59316;52.964;7.102;2022-12-11T13:50:44;56.67;;;15.13;;
70757;SDS011;59316;52.964;7.102;2022-12-11T13:55:54;57.35;;;15.77;;
70757;SDS011;59316;52.964;7.102;2022-12-11T14:06:07;55.17;;;15.32;;
70757;SDS011;59316;52.964;7.102;2022-12-11T14:16:21;58.55;;;15.73;;
70757;SDS011;59316;52.964;7.102;2022-12-11T14:21:24;57.17;;;15.30;;
70757;SDS011;59316;52.964;7.102;2022-12-11T14:26:30;65.70;;;15.95;;
70757;SDS011;59316;52.964;7.102;2022-12-11T14:31:34;53.70;;;13.82;;
70757;SDS011;59316;52.964;7.102;2022-12-11T14:36:37;57.20;;;14.30;;
70757;SDS011;59316;52.964;7.102;2022-12-11T14:46:48;53.20;;;14.63;;
70757;SDS011;59316;52.964;7.102;2022-12-11T14:51:51;59.00;;;15.70;;
70757;SDS011;59316;52.964;7.102;2022-12-11T14:56:54;50.63;;;15.00;;
70757;SDS011;59316;52.964;7.102;2022-12-11T15:01:57;63.60;;;15.83;;
70757;SDS011;59316;52.964;7.102;2022-12-11T15:07:02;57.45;;;14.10;;
70757;SDS011;59316;52.964;7.102;2022-12-11T15:12:14;55.80;;;15.10;;
70757;SDS011;59316;52.964;7.102;2022-12-11T15:17:16;58.38;;;14.88;;
70757;SDS011;59316;52.964;7.102;2022-12-11T15:22:19;54.35;;;14.38;;
70757;SDS011;59316;52.964;7.102;2022-12-11T15:32:23;59.75;;;15.35;;
70757;SDS011;59316;52.964;7.102;2022-12-11T15:37:27;57.17;;;15.82;;
70757;SDS011;59316;52.964;7.102;2022-12-11T15:47:30;56.30;;;14.57;;
70757;SDS011;59316;52.964;7.102;2022-12-11T15:52:32;62.95;;;15.85;;
70757;SDS011;59316;52.964;7.102;2022-12-11T15:57:34;57.13;;;15.93;;
70757;SDS011;59316;52.964;7.102;2022-12-11T16:02:36;53.42;;;15.07;;
70757;SDS011;59316;52.964;7.102;2022-12-11T16:07:38;64.55;;;16.90;;
70757;SDS011;59316;52.964;7.102;2022-12-11T16:12:40;57.72;;;14.95;;
70757;SDS011;59316;52.964;7.102;2022-12-11T16:17:42;57.15;;;14.90;;
70757;SDS011;59316;52.964;7.102;2022-12-11T16:22:44;58.88;;;15.77;;
70757;SDS011;59316;52.964;7.102;2022-12-11T16:27:46;59.13;;;15.07;;
70757;SDS011;59316;52.964;7.102;2022-12-11T16:32:47;57.65;;;16.33;;
70757;SDS011;59316;52.964;7.102;2022-12-11T16:37:50;55.88;;;14.30;;
70757;SDS011;59316;52.964;7.102;2022-12-11T16:42:52;55.25;;;16.08;;
70757;SDS011;59316;52.964;7.102;2022-12-11T16:47:54;55.72;;;13.98;;
70757;SDS011;59316;52.964;7.102;2022-12-11T16:52:56;60.92;;;15.30;;
70757;SDS011;59316;52.964;7.102;2022-12-11T16:57:57;70.97;;;16.25;;
70757;SDS011;59316;52.964;7.102;2022-12-11T17:02:59;61.72;;;15.93;;
70757;SDS011;59316;52.964;7.102;2022-12-11T17:08:01;72.75;;;16.33;;
70757;SDS011;59316;52.964;7.102;2022-12-11T17:13:03;71.28;;;16.25;;
70757;SDS011;59316;52.964;7.102;2022-12-11T17:18:05;62.85;;;16.52;;
70757;SDS011;59316;52.964;7.102;2022-12-11T17:23:08;78.63;;;16.60;;
70757;SDS011;59316;52.964;7.102;2022-12-11T17:28:10;72.32;;;16.80;;
70757;SDS011;59316;52.964;7.102;2022-12-11T17:33:13;73.13;;;16.70;;
70757;SDS011;59316;52.964;7.102;2022-12-11T17:38:14;58.67;;;15.82;;
70757;SDS011;59316;52.964;7.102;2022-12-11T17:43:16;63.55;;;15.68;;
70757;SDS011;59316;52.964;7.102;2022-12-11T17:48:18;54.72;;;14.73;;
70757;SDS011;59316;52.964;7.102;2022-12-11T17:53:21;59.70;;;15.60;;
70757;SDS011;59316;52.964;7.102;2022-12-11T17:58:23;63.33;;;15.13;;
70757;SDS011;59316;52.964;7.102;2022-12-11T18:03:25;66.68;;;15.55;;
70757;SDS011;59316;52.964;7.102;2022-12-11T18:08:28;52.05;;;15.25;;
70757;SDS011;59316;52.964;7.102;2022-12-11T18:13:29;62.95;;;16.27;;
70757;SDS011;59316;52.964;7.102;2022-12-11T18:18:31;63.15;;;16.00;;
70757;SDS011;59316;52.964;7.102;2022-12-11T18:23:33;61.72;;;14.90;;
70757;SDS011;59316;52.964;7.102;2022-12-11T18:28:36;60.70;;;16.08;;
70757;SDS011;59316;52.964;7.102;2022-12-11T18:33:39;62.50;;;15.50;;
70757;SDS011;59316;52.964;7.102;2022-12-11T18:38:41;68.25;;;16.63;;
70757;SDS011;59316;52.964;7.102;2022-12-11T18:43:43;59.03;;;16.23;;
70757;SDS011;59316;52.964;7.102;2022-12-11T18:48:46;69.65;;;16.77;;
70757;SDS011;59316;52.964;7.102;2022-12-11T18:53:48;73.25;;;17.48;;
70757;SDS011;59316;52.964;7.102;2022-12-11T18:58:50;67.87;;;16.47;;
70757;SDS011;59316;52.964;7.102;2022-12-11T19:03:53;67.85;;;16.85;;
70757;SDS011;59316;52.964;7.102;2022-12-11T19:09:04;77.53;;;16.40;;
70757;SDS011;59316;52.964;7.102;2022-12-11T19:19:11;62.63;;;16.25;;
70757;SDS011;59316;52.964;7.102;2022-12-11T19:24:15;72.20;;;17.70;;
70757;SDS011;59316;52.964;7.102;2022-12-11T19:29:18;63.17;;;15.75;;
70757;SDS011;59316;52.964;7.102;2022-12-11T19:34:21;62.22;;;17.02;;
70757;SDS011;59316;52.964;7.102;2022-12-11T19:39:23;80.20;;;17.25;;
70757;SDS011;59316;52.964;7.102;2022-12-11T19:44:26;57.90;;;17.35;;
70757;SDS011;59316;52.964;7.102;2022-12-11T19:49:27;56.63;;;15.88;;
70757;SDS011;59316;52.964;7.102;2022-12-11T19:54:30;58.17;;;16.20;;
70757;SDS011;59316;52.964;7.102;2022-12-11T19:59:32;67.53;;;15.05;;
70757;SDS011;59316;52.964;7.102;2022-12-11T20:04:34;63.15;;;15.73;;
70757;SDS011;59316;52.964;7.102;2022-12-11T20:09:36;59.95;;;16.40;;
70757;SDS011;59316;52.964;7.102;2022-12-11T20:14:38;70.45;;;16.17;;
70757;SDS011;59316;52.964;7.102;2022-12-11T20:19:41;59.97;;;15.82;;
70757;SDS011;59316;52.964;7.102;2022-12-11T20:24:43;61.27;;;17.30;;
70757;SDS011;59316;52.964;7.102;2022-12-11T20:29:45;55.25;;;15.00;;
70757;SDS011;59316;52.964;7.102;2022-12-11T20:34:46;58.92;;;15.07;;
70757;SDS011;59316;52.964;7.102;2022-12-11T20:39:49;53.60;;;15.15;;
70757;SDS011;59316;52.964;7.102;2022-12-11T20:44:51;64.05;;;16.80;;
70757;SDS011;59316;52.964;7.102;2022-12-11T20:49:53;64.80;;;16.98;;
70757;SDS011;59316;52.964;7.102;2022-12-11T20:54:55;57.53;;;15.02;;
70757;SDS011;59316;52.964;7.102;2022-12-11T20:59:57;64.53;;;15.65;;
70757;SDS011;59316;52.964;7.102;2022-12-11T21:04:59;60.30;;;15.80;;
70757;SDS011;59316;52.964;7.102;2022-12-11T21:10:00;57.78;;;16.25;;
70757;SDS011;59316;52.964;7.102;2022-12-11T21:15:03;61.47;;;15.88;;
70757;SDS011;59316;52.964;7.102;2022-12-11T21:20:05;55.33;;;14.95;;
70757;SDS011;59316;52.964;7.102;2022-12-11T21:25:07;61.03;;;16.42;;
70757;SDS011;59316;52.964;7.102;2022-12-11T21:30:09;58.80;;;16.25;;
70757;SDS011;59316;52.964;7.102;2022-12-11T21:35:11;65.95;;;15.52;;
70757;SDS011;59316;52.964;7.102;2022-12-11T21:40:13;65.63;;;16.55;;
70757;SDS011;59316;52.964;7.102;2022-12-11T21:45:16;65.57;;;16.75;;
70757;SDS011;59316;52.964;7.102;2022-12-11T21:50:38;63.47;;;15.07;;
70757;SDS011;59316;52.964;7.102;2022-12-11T21:55:40;71.27;;;18.33;;
70757;SDS011;59316;52.964;7.102;2022-12-11T22:00:43;61.30;;;15.20;;
70757;SDS011;59316;52.964;7.102;2022-12-11T22:05:46;72.13;;;16.50;;
70757;SDS011;59316;52.964;7.102;2022-12-11T22:10:48;57.72;;;15.75;;
70757;SDS011;59316;52.964;7.102;2022-12-11T22:15:50;54.33;;;15.23;;
70757;SDS011;59316;52.964;7.102;2022-12-11T22:20:52;56.95;;;15.80;;
70757;SDS011;59316;52.964;7.102;2022-12-11T22:25:55;54.13;;;15.88;;
70757;SDS011;59316;52.964;7.102;2022-12-11T22:30:57;53.10;;;15.75;;
70757;SDS011;59316;52.964;7.102;2022-12-11T22:36:00;58.15;;;15.95;;
70757;SDS011;59316;52.964;7.102;2022-12-11T22:41:11;54.30;;;16.20;;
70757;SDS011;59316;52.964;7.102;2022-12-11T22:46:20;54.17;;;14.35;;
70757;SDS011;59316;52.964;7.102;2022-12-11T22:51:22;57.85;;;15.25;;
70757;SDS011;59316;52.964;7.102;2022-12-11T22:56:24;56.25;;;15.25;;
70757;SDS011;59316;52.964;7.102;2022-12-11T23:01:26;52.05;;;14.50;;
70757;SDS011;59316;52.964;7.102;2022-12-11T23:06:28;55.60;;;15.55;;
70757;SDS011;59316;52.964;7.102;2022-12-11T23:11:32;56.58;;;16.15;;
70757;SDS011;59316;52.964;7.102;2022-12-11T23:16:34;55.10;;;16.13;;
70757;SDS011;59316;52.964;7.102;2022-12-11T23:21:36;53.40;;;14.45;;
70757;SDS011;59316;52.964;7.102;2022-12-11T23:26:39;54.42;;;16.15;;
70757;SDS011;59316;52.964;7.102;2022-12-11T23:31:41;52.53;;;15.18;;
70757;SDS011;59316;52.964;7.102;2022-12-11T23:36:43;56.55;;;16.90;;
70757;SDS011;59316;52.964;7.102;2022-12-11T23:41:45;55.05;;;15.95;;
70757;SDS011;59316;52.964;7.102;2022-12-11T23:46:47;56.25;;;16.02;;
70757;SDS011;59316;52.964;7.102;2022-12-11T23:51:49;58.65;;;16.27;;
70757;SDS011;59316;52.964;7.102;2022-12-11T23:56:51;51.58;;;15.52;;
